createdAt,value
2022-11-20T00:00:37.900Z,84.32
2022-11-20T00:01:39.765Z,83.85
2022-11-20T00:02:41.662Z,83.25
2022-11-20T00:03:43.567Z,83.43
2022-11-20T00:04:45.674Z,83.34
2022-11-20T00:05:47.391Z,83.01
2022-11-20T00:06:49.050Z,83.12
2022-11-20T00:07:50.683Z,82.92
2022-11-20T00:08:54.926Z,82.57
2022-11-20T00:09:56.586Z,82.80
2022-11-20T00:10:58.282Z,82.67
2022-11-20T00:11:59.958Z,82.95
2022-11-20T00:13:01.760Z,83.14
2022-11-20T00:14:03.800Z,83.29
2022-11-20T00:15:05.791Z,82.31
2022-11-20T00:16:10.285Z,82.36
2022-11-20T00:17:11.941Z,82.66
2022-11-20T00:18:13.736Z,83.20
2022-11-20T00:19:15.424Z,82.87
2022-11-20T00:20:17.358Z,82.59
2022-11-20T00:21:27.734Z,82.16
2022-11-20T00:22:29.392Z,82.14
2022-11-20T00:23:31.216Z,81.98
2022-11-20T00:24:32.854Z,82.10
2022-11-20T00:25:37.383Z,82.73
2022-11-20T00:26:39.083Z,82.38
2022-11-20T00:27:40.797Z,82.55
2022-11-20T00:28:44.496Z,82.56
2022-11-20T00:29:46.143Z,83.04
2022-11-20T00:30:47.855Z,83.21
2022-11-20T00:31:49.532Z,82.93
2022-11-20T00:32:51.177Z,82.53
2022-11-20T00:33:53.386Z,82.29
2022-11-20T00:34:55.093Z,82.28
2022-11-20T00:36:07.384Z,82.36
2022-11-20T00:37:09.087Z,82.68
2022-11-20T00:38:10.731Z,82.60
2022-11-20T00:39:12.455Z,82.68
2022-11-20T00:40:14.166Z,81.90
2022-11-20T00:41:17.090Z,81.84
2022-11-20T00:42:19.061Z,82.45
2022-11-20T00:43:20.724Z,82.47
2022-11-20T00:44:22.389Z,81.72
2022-11-20T00:45:24.044Z,81.46
2022-11-20T00:46:27.876Z,81.91
2022-11-20T00:47:29.511Z,82.30
2022-11-20T00:48:31.934Z,82.26
2022-11-20T00:49:33.594Z,81.87
2022-11-20T00:50:35.248Z,81.56
2022-11-20T00:51:36.894Z,81.32
2022-11-20T00:52:38.581Z,81.67
2022-11-20T00:53:40.272Z,81.17
2022-11-20T00:54:41.920Z,80.45
2022-11-20T00:55:43.620Z,80.33
2022-11-20T00:56:45.280Z,80.16
2022-11-20T00:57:46.988Z,80.35
2022-11-20T00:58:50.000Z,80.63
2022-11-20T00:59:51.758Z,80.79
2022-11-20T01:00:53.509Z,80.92
2022-11-20T01:01:55.170Z,81.21
2022-11-20T01:02:57.461Z,80.35
2022-11-20T01:04:01.028Z,80.61
2022-11-20T01:05:02.660Z,80.34
2022-11-20T01:06:06.656Z,79.84
2022-11-20T01:07:08.379Z,79.92
2022-11-20T01:08:10.190Z,79.39
2022-11-20T01:09:14.723Z,79.57
2022-11-20T01:10:16.477Z,79.52
2022-11-20T01:11:21.514Z,79.54
2022-11-20T01:12:23.152Z,80.20
2022-11-20T01:13:40.169Z,81.08
2022-11-20T01:14:41.889Z,80.67
2022-11-20T01:15:43.574Z,80.27
2022-11-20T01:16:51.367Z,80.29
2022-11-20T01:17:52.994Z,80.15
2022-11-20T01:18:57.966Z,80.46
2022-11-20T01:19:59.642Z,80.39
2022-11-20T01:21:07.080Z,80.13
2022-11-20T01:22:08.733Z,80.27
2022-11-20T01:23:10.509Z,80.54
2022-11-20T01:24:15.478Z,80.27
2022-11-20T01:25:17.125Z,80.31
2022-11-20T01:26:24.761Z,79.98
2022-11-20T01:27:26.435Z,79.85
2022-11-20T01:28:29.340Z,79.72
2022-11-20T01:29:31.100Z,79.42
2022-11-20T01:30:32.760Z,79.73
2022-11-20T01:31:37.253Z,79.30
2022-11-20T01:32:38.892Z,79.42
2022-11-20T01:33:41.876Z,79.78
2022-11-20T01:34:43.511Z,79.56
2022-11-20T01:35:45.148Z,79.18
2022-11-20T01:36:47.302Z,79.66
2022-11-20T01:37:48.936Z,79.79
2022-11-20T01:39:02.550Z,79.66
2022-11-20T01:40:04.635Z,80.41
2022-11-20T01:41:07.603Z,80.81
2022-11-20T01:42:38.179Z,80.48
2022-11-20T01:43:39.807Z,80.16
2022-11-20T01:44:51.988Z,80.03
2022-11-20T01:46:17.559Z,79.87
2022-11-20T01:47:47.386Z,79.27
2022-11-20T01:48:58.866Z,78.95
2022-11-20T01:50:06.863Z,78.61
2022-11-20T01:51:18.315Z,78.89
2022-11-20T01:52:37.698Z,79.56
2022-11-20T01:53:39.848Z,79.68
2022-11-20T01:54:50.515Z,79.58
2022-11-20T01:55:57.856Z,80.03
2022-11-20T01:57:01.032Z,79.93
2022-11-20T01:58:04.109Z,79.64
2022-11-20T01:59:08.310Z,79.68
2022-11-20T02:00:14.603Z,79.93
2022-11-20T02:01:16.638Z,79.45
2022-11-20T02:02:18.381Z,79.45
2022-11-20T02:03:21.578Z,78.45
2022-11-20T02:04:24.282Z,77.55
2022-11-20T02:05:36.473Z,76.75
2022-11-20T02:06:49.493Z,76.45
2022-11-20T02:07:51.831Z,76.83
2022-11-20T02:08:54.351Z,76.69
2022-11-20T02:09:58.755Z,76.49
2022-11-20T02:11:00.810Z,76.24
2022-11-20T02:12:03.557Z,76.78
2022-11-20T02:13:24.626Z,76.21
2022-11-20T02:14:27.411Z,75.59
2022-11-20T02:15:30.429Z,75.26
2022-11-20T02:16:37.232Z,76.09
2022-11-20T02:17:39.332Z,75.85
2022-11-20T02:18:42.571Z,75.64
2022-11-20T02:19:44.268Z,76.02
2022-11-20T02:20:48.469Z,76.07
2022-11-20T02:21:57.585Z,76.35
2022-11-20T02:23:05.920Z,76.54
2022-11-20T02:24:10.359Z,76.88
2022-11-20T02:25:12.807Z,76.85
2022-11-20T02:26:16.981Z,76.69
2022-11-20T02:27:19.290Z,77.03
2022-11-20T02:28:21.071Z,77.01
2022-11-20T02:29:53.079Z,76.17
2022-11-20T02:30:54.781Z,75.64
2022-11-20T02:31:59.046Z,75.46
2022-11-20T02:33:00.721Z,75.70
2022-11-20T02:34:02.422Z,75.32
2022-11-20T02:35:27.094Z,74.90
2022-11-20T02:36:31.704Z,75.47
2022-11-20T02:37:38.030Z,75.97
2022-11-20T02:38:39.695Z,76.01
2022-11-20T02:39:42.473Z,75.61
2022-11-20T02:40:44.641Z,75.23
2022-11-20T02:41:46.344Z,75.20
2022-11-20T02:42:48.025Z,74.68
2022-11-20T02:43:49.667Z,74.67
2022-11-20T02:44:51.313Z,74.90
2022-11-20T02:45:53.008Z,75.23
2022-11-20T02:46:57.762Z,74.79
2022-11-20T02:47:59.732Z,73.58
2022-11-20T02:49:05.645Z,73.60
2022-11-20T02:50:07.467Z,73.15
2022-11-20T02:51:09.220Z,71.64
2022-11-20T02:52:10.942Z,71.92
2022-11-20T02:53:12.575Z,71.67
2022-11-20T02:54:14.423Z,71.03
2022-11-20T02:55:16.174Z,71.34
2022-11-20T02:56:17.982Z,70.72
2022-11-20T02:57:19.749Z,71.19
2022-11-20T02:58:21.569Z,71.33
2022-11-20T02:59:23.670Z,71.33
2022-11-20T03:00:25.730Z,71.84
2022-11-20T03:01:27.384Z,71.40
2022-11-20T03:02:32.784Z,69.92
2022-11-20T03:03:34.430Z,69.64
2022-11-20T03:04:36.243Z,69.57
2022-11-20T03:05:37.941Z,70.04
2022-11-20T03:06:39.589Z,70.13
2022-11-20T03:07:41.668Z,69.54
2022-11-20T03:08:43.803Z,69.36
2022-11-20T03:09:45.453Z,69.09
2022-11-20T03:10:47.148Z,68.44
2022-11-20T03:11:48.793Z,68.50
2022-11-20T03:12:56.358Z,68.27
2022-11-20T03:13:58.043Z,68.04
2022-11-20T03:14:59.664Z,68.45
2022-11-20T03:16:16.707Z,67.97
2022-11-20T03:17:18.426Z,68.11
2022-11-20T03:18:20.077Z,68.12
2022-11-20T03:19:21.881Z,68.08
2022-11-20T03:20:24.446Z,68.20
2022-11-20T03:21:26.406Z,68.67
2022-11-20T03:22:31.076Z,69.08
2022-11-20T03:23:33.664Z,68.51
2022-11-20T03:24:35.354Z,68.02
2022-11-20T03:25:36.994Z,68.09
2022-11-20T03:26:40.468Z,68.62
2022-11-20T03:27:42.104Z,69.26
2022-11-20T03:28:48.399Z,69.74
2022-11-20T03:29:50.094Z,69.73
2022-11-20T03:30:51.741Z,69.90
2022-11-20T03:31:53.448Z,69.60
2022-11-20T03:32:55.572Z,69.17
2022-11-20T03:33:59.075Z,69.81
2022-11-20T03:35:00.727Z,70.32
2022-11-20T03:36:08.122Z,70.34
2022-11-20T03:37:09.768Z,70.55
2022-11-20T03:38:11.422Z,71.42
2022-11-20T03:39:13.172Z,71.88
2022-11-20T03:40:14.924Z,72.00
2022-11-20T03:41:21.848Z,72.20
2022-11-20T03:42:42.176Z,72.92
2022-11-20T03:43:48.629Z,73.74
2022-11-20T03:44:50.280Z,73.89
2022-11-20T03:45:51.955Z,73.64
2022-11-20T03:46:53.693Z,73.87
2022-11-20T03:47:55.343Z,73.59
2022-11-20T03:48:57.518Z,73.23
2022-11-20T03:49:59.171Z,73.54
2022-11-20T03:51:17.497Z,73.53
2022-11-20T03:52:19.349Z,73.63
2022-11-20T03:53:21.387Z,73.40
2022-11-20T03:54:23.015Z,73.51
2022-11-20T03:55:24.691Z,73.74
2022-11-20T03:56:29.135Z,74.36
2022-11-20T03:57:30.824Z,75.81
2022-11-20T03:58:34.263Z,75.79
2022-11-20T03:59:35.909Z,75.94
2022-11-20T04:00:37.669Z,75.77
2022-11-20T04:01:39.372Z,76.17
2022-11-20T04:02:41.061Z,76.27
2022-11-20T04:03:44.394Z,76.29
2022-11-20T04:04:46.041Z,75.91
2022-11-20T04:05:47.668Z,76.04
2022-11-20T04:06:49.387Z,76.08
2022-11-20T04:07:51.002Z,76.39
2022-11-20T04:08:55.799Z,76.33
2022-11-20T04:09:57.442Z,76.94
2022-11-20T04:11:16.535Z,76.82
2022-11-20T04:12:18.183Z,77.33
2022-11-20T04:13:19.818Z,77.35
2022-11-20T04:14:21.488Z,78.10
2022-11-20T04:15:23.294Z,77.63
2022-11-20T04:16:26.508Z,78.56
2022-11-20T04:17:28.164Z,78.83
2022-11-20T04:18:29.848Z,78.75
2022-11-20T04:19:31.496Z,78.97
2022-11-20T04:20:33.168Z,78.54
2022-11-20T04:21:34.911Z,78.58
2022-11-20T04:22:36.565Z,78.64
2022-11-20T04:23:38.488Z,78.74
2022-11-20T04:24:40.183Z,78.84
2022-11-20T04:25:41.829Z,78.76
2022-11-20T04:26:43.445Z,79.19
2022-11-20T04:27:45.108Z,79.55
2022-11-20T04:28:46.798Z,79.94
2022-11-20T04:29:48.474Z,80.70
2022-11-20T04:30:50.150Z,80.17
2022-11-20T04:31:51.796Z,79.84
2022-11-20T04:32:53.489Z,79.57
2022-11-20T04:33:55.706Z,79.64
2022-11-20T04:34:57.398Z,79.32
2022-11-20T04:36:13.829Z,79.48
2022-11-20T04:37:15.476Z,79.15
2022-11-20T04:38:17.145Z,79.37
2022-11-20T04:39:19.115Z,79.14
2022-11-20T04:40:20.991Z,79.35
2022-11-20T04:41:23.818Z,79.42
2022-11-20T04:42:31.320Z,79.25
2022-11-20T04:43:33.954Z,79.68
2022-11-20T04:44:35.633Z,79.88
2022-11-20T04:45:37.289Z,79.81
2022-11-20T04:46:41.722Z,79.94
2022-11-20T04:47:43.395Z,80.01
2022-11-20T04:48:45.276Z,79.87
2022-11-20T04:49:46.966Z,80.05
2022-11-20T04:50:48.814Z,79.44
2022-11-20T04:51:50.489Z,79.07
2022-11-20T04:52:52.157Z,79.18
2022-11-20T04:53:54.360Z,78.95
2022-11-20T04:54:56.256Z,78.26
2022-11-20T04:56:02.430Z,77.89
2022-11-20T04:57:04.188Z,78.22
2022-11-20T04:58:05.888Z,77.97
2022-11-20T04:59:07.541Z,78.75
2022-11-20T05:00:10.102Z,79.60
2022-11-20T05:01:17.701Z,79.27
2022-11-20T05:02:19.494Z,79.24
2022-11-20T05:03:21.153Z,79.66
2022-11-20T05:04:22.956Z,79.19
2022-11-20T05:05:24.668Z,78.63
2022-11-20T05:06:26.462Z,79.20
2022-11-20T05:07:28.218Z,79.81
2022-11-20T05:08:31.227Z,80.08
2022-11-20T05:09:33.000Z,80.95
2022-11-20T05:10:34.678Z,81.10
2022-11-20T05:11:36.341Z,80.84
2022-11-20T05:12:37.975Z,80.46
2022-11-20T05:13:39.863Z,80.01
2022-11-20T05:14:41.711Z,79.19
2022-11-20T05:15:43.428Z,79.18
2022-11-20T05:16:45.178Z,78.64
2022-11-20T05:17:51.346Z,78.96
2022-11-20T05:18:55.228Z,78.77
2022-11-20T05:19:56.944Z,78.97
2022-11-20T05:20:59.031Z,79.19
2022-11-20T05:22:00.822Z,79.06
2022-11-20T05:23:02.533Z,78.83
2022-11-20T05:24:04.314Z,78.94
2022-11-20T05:25:06.463Z,78.48
2022-11-20T05:26:13.076Z,78.90
2022-11-20T05:27:14.757Z,78.67
2022-11-20T05:28:16.475Z,78.70
2022-11-20T05:29:18.279Z,79.65
2022-11-20T05:30:20.162Z,80.17
2022-11-20T05:31:27.541Z,80.57
2022-11-20T05:32:29.935Z,81.51
2022-11-20T05:33:31.581Z,81.95
2022-11-20T05:34:33.312Z,82.49
2022-11-20T05:35:34.990Z,82.34
2022-11-20T05:36:36.686Z,80.69
2022-11-20T05:37:38.366Z,79.20
2022-11-20T05:38:40.920Z,78.01
2022-11-20T05:39:42.572Z,77.73
2022-11-20T05:40:44.274Z,77.74
2022-11-20T05:41:45.969Z,77.28
2022-11-20T05:42:47.625Z,77.50
2022-11-20T05:43:51.031Z,77.48
2022-11-20T05:44:52.713Z,77.28
2022-11-20T05:45:55.347Z,76.68
2022-11-20T05:46:56.989Z,76.88
2022-11-20T05:48:01.237Z,76.03
2022-11-20T05:49:03.006Z,76.28
2022-11-20T05:50:04.959Z,75.43
2022-11-20T05:51:08.993Z,75.44
2022-11-20T05:52:10.666Z,75.60
2022-11-20T05:53:12.342Z,75.73
2022-11-20T05:54:14.317Z,75.13
2022-11-20T05:55:16.022Z,75.77
2022-11-20T05:56:20.380Z,75.82
2022-11-20T05:57:22.025Z,75.52
2022-11-20T05:58:23.758Z,75.72
2022-11-20T05:59:25.411Z,76.00
2022-11-20T06:00:27.055Z,76.06
2022-11-20T06:01:28.738Z,76.22
2022-11-20T06:02:30.460Z,76.57
2022-11-20T06:03:32.213Z,75.73
2022-11-20T06:04:33.893Z,75.43
2022-11-20T06:05:35.540Z,74.82
2022-11-20T06:06:37.216Z,74.85
2022-11-20T06:07:38.899Z,74.56
2022-11-20T06:08:40.984Z,74.47
2022-11-20T06:09:42.821Z,74.20
2022-11-20T06:10:44.471Z,73.97
2022-11-20T06:11:46.122Z,74.66
2022-11-20T06:12:47.767Z,73.77
2022-11-20T06:13:49.799Z,74.10
2022-11-20T06:14:51.444Z,73.25
2022-11-20T06:15:54.312Z,73.79
2022-11-20T06:16:56.130Z,73.52
2022-11-20T06:17:57.876Z,72.79
2022-11-20T06:18:59.552Z,72.31
2022-11-20T06:20:01.206Z,71.82
2022-11-20T06:21:02.825Z,71.40
2022-11-20T06:22:04.500Z,71.35
2022-11-20T06:23:06.142Z,71.28
2022-11-20T06:24:08.190Z,71.33
2022-11-20T06:25:09.882Z,70.97
2022-11-20T06:26:15.110Z,70.49
2022-11-20T06:27:17.340Z,71.32
2022-11-20T06:28:18.992Z,70.46
2022-11-20T06:29:20.939Z,70.10
2022-11-20T06:30:22.816Z,69.77
2022-11-20T06:31:26.609Z,70.19
2022-11-20T06:32:28.263Z,70.50
2022-11-20T06:33:30.579Z,69.52
2022-11-20T06:34:32.215Z,67.76
2022-11-20T06:35:33.886Z,67.24
2022-11-20T06:36:35.868Z,66.87
2022-11-20T06:37:37.549Z,67.13
2022-11-20T06:38:40.541Z,66.60
2022-11-20T06:39:42.203Z,65.57
2022-11-20T06:40:44.071Z,66.25
2022-11-20T06:41:45.696Z,67.63
2022-11-20T06:42:47.362Z,67.99
2022-11-20T06:43:50.096Z,69.08
2022-11-20T06:44:51.745Z,69.34
2022-11-20T06:45:54.780Z,70.08
2022-11-20T06:46:56.443Z,70.33
2022-11-20T06:48:01.029Z,71.09
2022-11-20T06:49:02.683Z,71.79
2022-11-20T06:50:04.621Z,71.91
2022-11-20T06:51:08.534Z,72.40
2022-11-20T06:52:10.239Z,72.37
2022-11-20T06:53:11.879Z,72.76
2022-11-20T06:54:13.574Z,73.43
2022-11-20T06:55:15.301Z,73.51
2022-11-20T06:56:17.098Z,74.05
2022-11-20T06:57:18.727Z,74.37
2022-11-20T06:58:20.408Z,74.64
2022-11-20T06:59:22.635Z,74.78
2022-11-20T07:00:24.937Z,75.21
2022-11-20T07:01:26.647Z,75.44
2022-11-20T07:02:28.417Z,76.03
2022-11-20T07:03:30.068Z,75.81
2022-11-20T07:04:31.737Z,75.86
2022-11-20T07:05:34.179Z,76.10
2022-11-20T07:06:35.852Z,75.69
2022-11-20T07:07:37.712Z,76.07
2022-11-20T07:08:39.407Z,76.30
2022-11-20T07:09:41.031Z,76.27
2022-11-20T07:10:42.686Z,75.49
2022-11-20T07:11:44.330Z,75.57
2022-11-20T07:12:51.783Z,75.51
2022-11-20T07:13:53.508Z,75.38
2022-11-20T07:14:55.233Z,75.47
2022-11-20T07:16:01.269Z,75.73
2022-11-20T07:17:02.920Z,75.57
2022-11-20T07:18:04.627Z,75.94
2022-11-20T07:19:06.264Z,75.57
2022-11-20T07:20:08.243Z,75.91
2022-11-20T07:21:11.698Z,75.67
2022-11-20T07:22:14.263Z,75.60
2022-11-20T07:23:16.149Z,75.32
2022-11-20T07:24:18.420Z,74.74
2022-11-20T07:25:20.086Z,75.18
2022-11-20T07:26:21.786Z,75.24
2022-11-20T07:27:23.549Z,75.32
2022-11-20T07:28:25.251Z,75.92
2022-11-20T07:29:27.000Z,76.34
2022-11-20T07:30:29.574Z,76.78
2022-11-20T07:31:31.203Z,78.05
2022-11-20T07:32:32.853Z,79.17
2022-11-20T07:33:34.606Z,79.52
2022-11-20T07:34:36.248Z,78.87
2022-11-20T07:35:37.925Z,79.66
2022-11-20T07:36:40.289Z,76.25
2022-11-20T07:37:42.753Z,77.05
2022-11-20T07:38:44.483Z,74.61
2022-11-20T07:39:46.184Z,73.42
2022-11-20T07:40:47.847Z,72.28
2022-11-20T07:41:49.517Z,70.20
2022-11-20T07:42:52.927Z,70.73
2022-11-20T07:43:54.599Z,71.05
2022-11-20T07:44:56.248Z,70.03
2022-11-20T07:45:59.517Z,71.23
2022-11-20T07:47:01.167Z,69.82
2022-11-20T07:48:02.941Z,70.76
2022-11-20T07:49:04.597Z,70.80
2022-11-20T07:50:06.803Z,71.29
2022-11-20T07:51:08.849Z,70.33
2022-11-20T07:52:10.483Z,67.38
2022-11-20T07:53:13.474Z,67.70
2022-11-20T07:54:15.134Z,67.82
2022-11-20T07:55:16.945Z,67.55
2022-11-20T07:56:18.612Z,67.12
2022-11-20T07:57:24.285Z,68.08
2022-11-20T07:58:30.667Z,68.80
2022-11-20T07:59:32.311Z,68.89
2022-11-20T08:00:34.014Z,69.88
2022-11-20T08:01:35.722Z,68.98
2022-11-20T08:02:41.927Z,69.17
2022-11-20T08:03:43.688Z,69.32
2022-11-20T08:04:45.323Z,69.89
2022-11-20T08:05:46.988Z,70.67
2022-11-20T08:06:48.661Z,69.50
2022-11-20T08:07:50.378Z,68.04
2022-11-20T08:08:52.362Z,67.46
2022-11-20T08:09:53.999Z,70.02
2022-11-20T08:11:17.649Z,72.79
2022-11-20T08:12:39.921Z,69.06
2022-11-20T08:13:59.994Z,67.91
2022-11-20T08:15:01.867Z,64.60
2022-11-20T08:16:03.707Z,62.09
2022-11-20T08:17:05.381Z,60.78
2022-11-20T08:19:34.358Z,64.22
2022-11-20T08:20:36.405Z,62.03
2022-11-20T08:21:38.608Z,59.71
2022-11-20T08:22:40.381Z,60.27
2022-11-20T08:23:42.094Z,61.82
2022-11-20T08:24:43.752Z,63.99
2022-11-20T08:25:50.655Z,62.44
2022-11-20T08:26:52.396Z,61.59
2022-11-20T08:27:59.266Z,58.82
2022-11-20T08:29:02.031Z,55.10
2022-11-20T08:30:03.927Z,56.82
2022-11-20T08:31:05.800Z,55.68
2022-11-20T08:32:07.458Z,55.52
2022-11-20T08:33:10.142Z,52.96
2022-11-20T08:34:16.220Z,51.10
2022-11-20T08:35:21.335Z,51.09
2022-11-20T08:36:24.222Z,49.61
2022-11-20T08:37:25.923Z,49.52
2022-11-20T08:38:27.697Z,48.42
2022-11-20T08:39:29.407Z,48.72
2022-11-20T08:40:31.792Z,48.45
2022-11-20T08:41:34.364Z,47.58
2022-11-20T08:42:36.042Z,47.99
2022-11-20T08:43:37.697Z,48.37
2022-11-20T08:44:39.354Z,48.94
2022-11-20T08:45:41.394Z,49.67
2022-11-20T08:46:44.791Z,50.19
2022-11-20T08:47:47.250Z,50.64
2022-11-20T08:48:48.998Z,49.56
2022-11-20T08:49:50.646Z,50.40
2022-11-20T08:50:52.294Z,50.20
2022-11-20T08:51:56.316Z,49.84
2022-11-20T08:53:05.996Z,49.67
2022-11-20T08:54:08.505Z,49.95
2022-11-20T08:55:11.193Z,50.79
2022-11-20T08:56:13.490Z,51.22
2022-11-20T08:57:15.135Z,51.16
2022-11-20T08:58:16.786Z,51.80
2022-11-20T08:59:36.810Z,52.51
2022-11-20T09:00:40.150Z,52.61
2022-11-20T09:01:41.863Z,51.25
2022-11-20T09:02:43.509Z,51.02
2022-11-20T09:03:45.154Z,50.58
2022-11-20T09:04:46.945Z,51.07
2022-11-20T09:05:48.727Z,51.95
2022-11-20T09:06:52.241Z,51.37
2022-11-20T09:07:57.781Z,50.70
2022-11-20T09:09:02.132Z,51.62
2022-11-20T09:10:23.713Z,52.05
2022-11-20T09:11:26.235Z,52.38
2022-11-20T09:12:27.935Z,53.15
2022-11-20T09:13:30.501Z,52.76
2022-11-20T09:14:32.190Z,54.49
2022-11-20T09:15:34.879Z,54.88
2022-11-20T09:16:36.589Z,54.06
2022-11-20T09:17:38.229Z,52.72
2022-11-20T09:18:40.025Z,52.23
2022-11-20T09:19:42.497Z,53.21
2022-11-20T09:20:44.624Z,52.55
2022-11-20T09:21:46.287Z,50.83
2022-11-20T09:22:48.100Z,46.89
2022-11-20T09:23:49.809Z,47.58
2022-11-20T09:24:51.472Z,47.81
2022-11-20T09:25:53.890Z,49.27
2022-11-20T09:26:55.546Z,47.43
2022-11-20T09:28:00.567Z,44.80
2022-11-20T09:29:02.252Z,44.28
2022-11-20T09:30:05.326Z,43.17
2022-11-20T09:31:18.429Z,43.96
2022-11-20T09:32:20.096Z,44.53
2022-11-20T09:33:21.745Z,45.33
2022-11-20T09:34:23.396Z,44.88
2022-11-20T09:35:25.037Z,45.48
2022-11-20T09:36:27.448Z,44.75
2022-11-20T09:37:29.601Z,45.69
2022-11-20T09:38:31.331Z,46.57
2022-11-20T09:39:33.036Z,45.12
2022-11-20T09:40:36.787Z,42.93
2022-11-20T09:41:53.491Z,44.94
2022-11-20T09:43:22.833Z,42.84
2022-11-20T09:44:57.477Z,41.50
2022-11-20T09:46:12.606Z,40.54
2022-11-20T09:47:18.546Z,39.98
2022-11-20T09:48:42.423Z,39.83
2022-11-20T09:49:57.443Z,39.98
2022-11-20T09:50:59.093Z,41.15
2022-11-20T09:52:10.716Z,41.93
2022-11-20T09:53:21.429Z,42.01
2022-11-20T09:54:28.946Z,40.28
2022-11-20T09:55:31.990Z,39.54
2022-11-20T09:56:37.882Z,41.92
2022-11-20T09:57:43.874Z,40.51
2022-11-20T09:59:05.396Z,40.14
2022-11-20T10:00:13.279Z,40.37
2022-11-20T10:01:20.927Z,37.13
2022-11-20T10:02:25.399Z,39.39
2022-11-20T10:04:00.978Z,38.66
2022-11-20T10:05:10.347Z,36.73
2022-11-20T10:06:16.808Z,36.26
2022-11-20T10:07:32.728Z,36.50
2022-11-20T10:09:02.193Z,33.86
2022-11-20T10:10:04.096Z,34.16
2022-11-20T10:11:26.163Z,34.72
2022-11-20T10:12:56.913Z,33.06
2022-11-20T10:14:01.456Z,33.87
2022-11-20T10:15:29.889Z,33.06
2022-11-20T10:16:49.809Z,33.50
2022-11-20T10:17:51.389Z,33.31
2022-11-20T10:19:08.262Z,32.25
2022-11-20T10:20:41.881Z,31.95
2022-11-20T10:22:17.868Z,32.55
2022-11-20T10:23:50.360Z,31.38
2022-11-20T10:25:02.098Z,30.87
2022-11-20T10:26:05.466Z,31.80
2022-11-20T10:27:28.568Z,31.35
2022-11-20T10:28:52.623Z,31.64
2022-11-20T10:30:15.598Z,31.11
2022-11-20T10:31:36.255Z,32.13
2022-11-20T10:32:40.625Z,31.50
2022-11-20T10:34:05.413Z,29.65
2022-11-20T10:35:41.578Z,32.50
2022-11-20T10:36:54.178Z,32.67
2022-11-20T10:38:06.656Z,32.33
2022-11-20T10:39:23.695Z,31.30
2022-11-20T10:40:47.489Z,31.17
2022-11-20T10:41:53.327Z,30.81
2022-11-20T10:43:03.012Z,31.23
2022-11-20T10:44:06.294Z,31.29
2022-11-20T10:45:38.329Z,30.53
2022-11-20T10:46:44.927Z,31.38
2022-11-20T10:47:46.590Z,30.69
2022-11-20T10:48:49.284Z,31.38
2022-11-20T10:49:56.516Z,30.43
2022-11-20T10:51:04.261Z,29.98
2022-11-20T10:52:12.297Z,29.92
2022-11-20T10:53:22.977Z,30.19
2022-11-20T10:54:36.589Z,30.41
2022-11-20T10:55:51.873Z,30.10
2022-11-20T10:56:57.704Z,30.25
2022-11-20T10:58:11.432Z,28.91
2022-11-20T10:59:21.284Z,29.88
2022-11-20T11:00:23.332Z,27.14
2022-11-20T11:01:25.119Z,28.13
2022-11-20T11:02:37.283Z,29.07
2022-11-20T11:03:39.584Z,29.76
2022-11-20T11:04:46.436Z,31.18
2022-11-20T11:06:08.123Z,31.62
2022-11-20T11:07:37.002Z,32.37
2022-11-20T11:08:40.482Z,33.36
2022-11-20T11:09:50.088Z,33.91
2022-11-20T11:10:58.844Z,34.81
2022-11-20T11:12:05.737Z,35.19
2022-11-20T11:13:19.766Z,35.64
2022-11-20T11:14:21.571Z,35.85
2022-11-20T11:15:41.768Z,36.00
2022-11-20T11:16:58.140Z,36.01
2022-11-20T11:17:59.783Z,36.50
2022-11-20T11:19:12.947Z,37.52
2022-11-20T11:20:22.234Z,38.65
2022-11-20T11:21:27.773Z,39.49
2022-11-20T11:22:32.362Z,39.49
2022-11-20T11:23:42.533Z,39.64
2022-11-20T11:24:53.445Z,39.98
2022-11-20T11:25:59.768Z,40.41
2022-11-20T11:27:16.924Z,41.05
2022-11-20T11:28:19.029Z,40.25
2022-11-20T11:29:21.333Z,40.88
2022-11-20T11:30:25.292Z,41.00
2022-11-20T11:31:28.144Z,41.88
2022-11-20T11:32:29.794Z,41.96
2022-11-20T11:33:34.827Z,42.12
2022-11-20T11:34:36.643Z,41.86
2022-11-20T11:36:03.430Z,42.05
2022-11-20T11:37:11.848Z,42.46
2022-11-20T11:38:44.221Z,42.35
2022-11-20T11:39:55.103Z,42.42
2022-11-20T11:41:08.773Z,43.03
2022-11-20T11:42:17.212Z,43.52
2022-11-20T11:43:44.475Z,44.02
2022-11-20T11:45:07.172Z,44.94
2022-11-20T11:46:20.925Z,44.35
2022-11-20T11:47:30.768Z,44.96
2022-11-20T11:48:32.452Z,44.87
2022-11-20T11:49:34.117Z,43.88
2022-11-20T11:50:35.751Z,44.26
2022-11-20T11:51:54.452Z,44.19
2022-11-20T11:53:15.688Z,43.77
2022-11-20T11:54:26.161Z,44.55
2022-11-20T11:55:56.046Z,43.09
2022-11-20T11:57:03.282Z,43.57
2022-11-20T11:58:20.833Z,42.74
2022-11-20T11:59:54.472Z,42.32
2022-11-20T12:01:04.218Z,41.72
2022-11-20T12:02:24.341Z,41.79
2022-11-20T12:03:35.568Z,42.15
2022-11-20T12:04:37.196Z,41.40
2022-11-20T12:05:44.392Z,40.94
2022-11-20T12:06:52.991Z,40.90
2022-11-20T12:08:12.130Z,42.07
2022-11-20T12:09:14.593Z,42.60
2022-11-20T12:10:36.456Z,42.90
2022-11-20T12:12:06.635Z,42.43
2022-11-20T12:13:27.344Z,43.02
2022-11-20T12:14:36.658Z,43.97
2022-11-20T12:15:45.377Z,44.01
2022-11-20T12:16:47.413Z,44.09
2022-11-20T12:17:49.101Z,44.46
2022-11-20T12:18:53.702Z,44.75
2022-11-20T12:19:55.432Z,44.95
2022-11-20T12:20:59.740Z,44.77
2022-11-20T12:22:19.488Z,44.51
2022-11-20T12:23:37.798Z,44.21
2022-11-20T12:24:48.712Z,44.31
2022-11-20T12:25:57.979Z,44.39
2022-11-20T12:27:14.597Z,44.07
2022-11-20T12:28:21.961Z,44.44
2022-11-20T12:29:29.434Z,45.40
2022-11-20T12:30:33.566Z,45.69
2022-11-20T12:32:02.738Z,46.35
2022-11-20T12:33:09.249Z,45.00
2022-11-20T12:34:29.612Z,43.17
2022-11-20T12:35:55.845Z,42.73
2022-11-20T12:37:04.602Z,41.99
2022-11-20T12:38:14.987Z,42.39
2022-11-20T12:39:43.638Z,42.67
2022-11-20T12:41:02.229Z,43.54
2022-11-20T12:42:44.064Z,43.05
2022-11-20T12:44:47.307Z,43.31
2022-11-20T12:46:07.524Z,43.23
2022-11-20T12:47:36.703Z,43.19
2022-11-20T12:48:47.487Z,44.03
2022-11-20T12:50:23.981Z,44.31
2022-11-20T12:51:43.102Z,44.30
2022-11-20T12:53:11.050Z,45.14
2022-11-20T12:54:46.911Z,44.59
2022-11-20T12:55:57.746Z,44.01
2022-11-20T12:57:24.606Z,43.91
2022-11-20T12:58:48.010Z,42.68
2022-11-20T13:00:11.993Z,42.55
2022-11-20T13:01:40.985Z,44.03
2022-11-20T13:03:04.722Z,44.63
2022-11-20T13:04:25.228Z,41.69
2022-11-20T13:05:52.182Z,39.91
2022-11-20T13:06:55.301Z,40.58
2022-11-20T13:07:59.094Z,40.48
2022-11-20T13:09:02.405Z,41.47
2022-11-20T13:10:13.212Z,41.03
2022-11-20T13:11:33.341Z,41.69
2022-11-20T13:12:45.708Z,42.30
2022-11-20T13:13:59.261Z,42.23
2022-11-20T13:15:20.153Z,41.77
2022-11-20T13:16:30.917Z,41.66
2022-11-20T13:17:38.404Z,42.86
2022-11-20T13:18:43.675Z,42.78
2022-11-20T13:20:07.969Z,41.63
2022-11-20T13:21:21.714Z,42.13
2022-11-20T13:22:44.042Z,41.97
2022-11-20T13:23:46.099Z,41.93
2022-11-20T13:24:52.048Z,43.80
2022-11-20T13:26:05.946Z,42.77
2022-11-20T13:27:13.328Z,44.23
2022-11-20T13:28:14.957Z,44.18
2022-11-20T13:29:20.507Z,44.36
2022-11-20T13:30:25.054Z,44.81
2022-11-20T13:31:32.457Z,43.64
2022-11-20T13:32:34.322Z,43.71
2022-11-20T13:33:40.206Z,43.90
2022-11-20T13:34:56.487Z,46.42
2022-11-20T13:35:59.881Z,45.29
2022-11-20T13:37:01.873Z,44.68
2022-11-20T13:38:06.479Z,42.92
2022-11-20T13:39:10.234Z,40.95
2022-11-20T13:40:12.167Z,39.62
2022-11-20T13:41:33.241Z,40.21
2022-11-20T13:42:46.206Z,40.35
2022-11-20T13:43:49.487Z,39.63
2022-11-20T13:45:02.926Z,40.29
2022-11-20T13:46:06.853Z,38.55
2022-11-20T13:47:38.366Z,38.87
2022-11-20T13:48:39.846Z,39.32
2022-11-20T13:49:49.263Z,38.32
2022-11-20T13:50:59.819Z,39.23
2022-11-20T13:52:19.483Z,39.05
2022-11-20T13:53:45.323Z,39.19
2022-11-20T13:55:03.134Z,39.74
2022-11-20T13:56:28.556Z,39.12
2022-11-20T13:57:51.682Z,39.45
2022-11-20T13:59:15.264Z,40.25
2022-11-20T14:00:19.842Z,39.83
2022-11-20T14:01:25.105Z,39.81
2022-11-20T14:02:29.578Z,39.88
2022-11-20T14:04:59.748Z,40.42
2022-11-20T14:06:11.742Z,42.76
2022-11-20T14:07:14.235Z,44.25
2022-11-20T14:08:26.325Z,44.62
2022-11-20T14:09:35.302Z,45.31
2022-11-20T14:10:40.241Z,45.95
2022-11-20T14:11:48.921Z,45.95
2022-11-20T14:12:51.823Z,46.77
2022-11-20T14:13:56.936Z,47.09
2022-11-20T14:14:59.278Z,47.72